Redmond, Oregon
Current Conditions -  °F | °C
As of 10:56 PM on Friday 28 Nov 2014 (Local Time) from KRDM Reporting Station
Light Rain Light Rain  
Wind Chill: 37°   Ceiling: 4100
Heat Index: 42°   Visibility: 10mi
Dew Point: 40°   Wind: 8mph
Humidity: 92%   Direction: 210°SSW
Pressure: 29.51"   Gusts: NA
Location:  44.27°N, 121.17°W
Report Text: KRDM 290656Z AUTO 21007KT 10SM -RA OVC041 06/04 A2951 RMK AO2 SLP994 P0003 T00560044
Loading
Personal Weather Stations






























Interactive Weather Map New forecast layout! Learn more

10-Day Weather Forecast

Advertisements
Track Severe Weather on mobile